Terminal Aerodrome Forecast
Issued by NWS

Home | Current Version | Previous Version | Text Only | Print | Product List | Glossary On
Versions: 1 2 3 4 5 6 7 8 9 10 11 12 13 14 15
000
FTUS43 KGRB 251523 AAB
TAFMTW
TAF AMD
KMTW 251523Z 2515/2612 03008KT P6SM SCT006
      TEMPO 2515/2517 BKN005
     FM251800 10008G15KT P6SM SCT020 BKN200
     FM260000 13007KT 5SM -SHRA BR BKN025 OVC100
      TEMPO 2601/2605 1 1/2SM +TSRA BKN006 OVC020CB
     FM260700 16007KT 2SM BR BKN005 BKN010=

USA.gov is the U.S. government's official web portal to all federal, state and local government web resources and services.